createdAt,value
2023-03-31T00:03:09.986Z,9.30
2023-03-31T00:08:35.963Z,9.20
2023-03-31T00:14:04.385Z,9.10
2023-03-31T00:19:29.116Z,9.10
2023-03-31T00:24:51.182Z,9.30
2023-03-31T00:30:14.081Z,9.10
2023-03-31T00:35:39.408Z,9.30
2023-03-31T00:41:32.284Z,9.20
2023-03-31T00:47:28.164Z,9.20
2023-03-31T00:53:17.666Z,9.20
2023-03-31T00:59:01.650Z,9.20
2023-03-31T01:04:46.123Z,9.20
2023-03-31T01:10:16.970Z,9.10
2023-03-31T01:15:40.511Z,9.10
2023-03-31T01:21:48.280Z,9.20
2023-03-31T01:27:47.862Z,9.10
2023-03-31T01:34:11.685Z,9.10
2023-03-31T01:39:53.209Z,9.00
2023-03-31T01:45:45.992Z,9.10
2023-03-31T01:52:03.445Z,9.10
2023-03-31T01:57:52.459Z,9.10
2023-03-31T02:03:45.057Z,9.10
2023-03-31T02:09:21.203Z,9.10
2023-03-31T02:14:46.638Z,9.00
2023-03-31T02:20:12.841Z,9.10
2023-03-31T02:25:38.939Z,9.10
2023-03-31T02:31:34.964Z,9.20
2023-03-31T02:37:15.349Z,9.10
2023-03-31T02:42:42.090Z,9.10
2023-03-31T02:48:05.734Z,9.20
2023-03-31T02:53:41.682Z,9.30
2023-03-31T02:59:24.810Z,9.30
2023-03-31T03:05:02.116Z,9.40
2023-03-31T03:10:54.173Z,9.30
2023-03-31T03:16:46.906Z,9.40
2023-03-31T03:22:23.087Z,9.40
2023-03-31T03:28:01.963Z,9.40
2023-03-31T03:33:38.315Z,9.50
2023-03-31T03:39:13.286Z,9.50
2023-03-31T03:44:34.892Z,9.50
2023-03-31T03:49:56.567Z,9.60
2023-03-31T03:55:18.158Z,9.50
2023-03-31T04:00:39.794Z,9.60
2023-03-31T04:06:21.929Z,9.60
2023-03-31T04:11:47.845Z,9.60
2023-03-31T04:17:20.132Z,9.60
2023-03-31T04:22:58.540Z,9.70
2023-03-31T04:28:39.746Z,9.70
2023-03-31T04:34:07.115Z,9.70
2023-03-31T04:39:34.853Z,9.70
2023-03-31T04:44:56.507Z,9.50
2023-03-31T04:50:17.795Z,9.50
2023-03-31T04:55:39.333Z,9.40
2023-03-31T05:01:00.803Z,9.50
2023-03-31T05:06:37.963Z,9.50
2023-03-31T05:12:24.257Z,9.50
2023-03-31T05:18:02.987Z,9.40
2023-03-31T05:23:44.400Z,9.40
2023-03-31T05:29:17.878Z,9.40
2023-03-31T05:34:39.770Z,9.50
2023-03-31T05:40:01.300Z,9.50
2023-03-31T05:45:22.746Z,9.40
2023-03-31T05:50:44.316Z,9.50
2023-03-31T05:56:30.919Z,9.60
2023-03-31T06:02:10.776Z,9.60
2023-03-31T06:07:37.938Z,9.90
2023-03-31T06:12:59.803Z,10.00
2023-03-31T06:18:33.208Z,10.00
2023-03-31T06:24:06.625Z,10.20
2023-03-31T06:29:31.475Z,10.20
2023-03-31T06:34:53.245Z,10.40
2023-03-31T06:40:14.708Z,10.40
2023-03-31T06:45:37.926Z,10.40
2023-03-31T06:51:31.839Z,10.70
2023-03-31T07:03:07.764Z,11.00
2023-03-31T07:08:57.542Z,11.10
2023-03-31T07:14:20.327Z,11.20
2023-03-31T07:19:42.328Z,11.40
2023-03-31T07:25:03.665Z,11.40
2023-03-31T07:30:25.065Z,11.60
2023-03-31T07:41:42.004Z,11.60
2023-03-31T07:47:23.094Z,11.50
2023-03-31T07:52:59.193Z,11.40
2023-03-31T07:58:38.264Z,11.30
2023-03-31T08:04:12.303Z,11.10
2023-03-31T08:09:54.666Z,11.00
2023-03-31T08:15:16.862Z,10.80
2023-03-31T08:20:39.492Z,10.80
2023-03-31T08:26:37.447Z,10.90
2023-03-31T08:32:15.988Z,11.10
2023-03-31T08:38:01.300Z,11.10
2023-03-31T08:43:46.436Z,10.90
2023-03-31T08:49:25.234Z,10.90
2023-03-31T08:54:58.614Z,10.90
2023-03-31T09:00:20.707Z,11.10
2023-03-31T09:06:28.792Z,11.10
2023-03-31T09:12:12.980Z,11.10
2023-03-31T09:18:01.067Z,10.90
2023-03-31T09:24:09.744Z,10.90
2023-03-31T09:29:44.782Z,11.00
2023-03-31T09:35:29.322Z,10.80
2023-03-31T09:41:02.560Z,10.60
2023-03-31T09:46:53.004Z,10.40
2023-03-31T09:53:07.473Z,10.50
2023-03-31T09:58:45.247Z,10.50
2023-03-31T10:04:43.770Z,10.40
2023-03-31T10:10:41.860Z,10.40
2023-03-31T10:16:31.655Z,10.40
2023-03-31T10:22:15.798Z,10.60
2023-03-31T10:27:59.277Z,10.50
2023-03-31T10:33:32.751Z,10.40
2023-03-31T10:39:09.840Z,10.40
2023-03-31T10:44:39.817Z,10.30
2023-03-31T10:50:12.792Z,10.20
2023-03-31T10:55:45.889Z,10.20
2023-03-31T11:01:58.966Z,10.00
2023-03-31T11:07:59.814Z,9.90
2023-03-31T11:13:53.886Z,9.70
2023-03-31T11:19:41.062Z,9.60
2023-03-31T11:25:16.115Z,9.60
2023-03-31T11:30:56.405Z,9.80
2023-03-31T11:36:48.209Z,9.60
2023-03-31T11:42:47.795Z,9.70
2023-03-31T11:48:58.110Z,9.70
2023-03-31T11:54:28.970Z,9.70
2023-03-31T11:59:59.934Z,9.80
2023-03-31T12:11:48.931Z,9.80
2023-03-31T12:17:54.613Z,9.90
2023-03-31T12:23:37.913Z,9.80
2023-03-31T12:29:11.668Z,9.80
2023-03-31T12:35:07.037Z,9.80
2023-03-31T12:40:37.532Z,10.00
2023-03-31T12:46:56.272Z,10.30
2023-03-31T12:53:03.824Z,10.60
2023-03-31T12:58:40.863Z,10.80
2023-03-31T13:04:57.804Z,10.90
2023-03-31T13:10:49.548Z,11.00
2023-03-31T13:16:35.932Z,11.10
2023-03-31T13:22:02.828Z,11.30
2023-03-31T13:27:58.556Z,11.50
2023-03-31T13:33:35.552Z,11.70
2023-03-31T13:39:12.636Z,11.90
2023-03-31T13:45:34.394Z,12.00
2023-03-31T13:51:50.683Z,12.10
2023-03-31T13:58:01.066Z,12.10
2023-03-31T14:03:52.459Z,12.20
2023-03-31T14:09:49.642Z,12.20
2023-03-31T14:15:21.374Z,12.60
2023-03-31T14:21:21.492Z,13.20
2023-03-31T14:27:32.533Z,13.30
2023-03-31T14:33:11.100Z,13.10
2023-03-31T14:38:45.588Z,12.80
2023-03-31T14:44:17.660Z,12.80
2023-03-31T14:49:40.445Z,12.60
2023-03-31T14:55:02.142Z,12.50
2023-03-31T15:00:32.530Z,12.50
2023-03-31T15:06:24.593Z,12.40
2023-03-31T15:12:19.854Z,12.40
2023-03-31T15:17:59.695Z,12.20
2023-03-31T15:23:35.984Z,11.90
2023-03-31T15:29:13.537Z,11.60
2023-03-31T15:34:37.073Z,11.90
2023-03-31T15:40:00.936Z,12.10
2023-03-31T15:45:25.239Z,11.90
2023-03-31T15:50:47.239Z,11.70
2023-03-31T15:56:38.519Z,11.60
2023-03-31T16:02:12.045Z,11.70
2023-03-31T16:07:54.795Z,11.50
2023-03-31T16:13:23.409Z,11.30
2023-03-31T16:19:16.128Z,11.10
2023-03-31T16:24:38.289Z,11.20
2023-03-31T16:30:36.651Z,11.20
2023-03-31T16:42:39.820Z,11.00
2023-03-31T16:48:16.298Z,11.20
2023-03-31T16:53:40.417Z,11.10
2023-03-31T16:59:08.940Z,10.90
2023-03-31T17:04:56.649Z,10.90
2023-03-31T17:10:22.834Z,11.00
2023-03-31T17:15:44.036Z,11.10
2023-03-31T17:21:23.802Z,10.80
2023-03-31T17:27:00.103Z,10.70
2023-03-31T17:32:49.285Z,10.70
2023-03-31T17:38:30.656Z,10.50
2023-03-31T17:43:59.640Z,10.40
2023-03-31T17:49:28.001Z,10.30
2023-03-31T17:54:55.406Z,10.30
2023-03-31T18:00:17.583Z,10.20
2023-03-31T18:05:51.937Z,10.20
2023-03-31T18:11:49.732Z,10.10
2023-03-31T18:17:29.170Z,10.10
2023-03-31T18:23:00.896Z,10.20
2023-03-31T18:28:38.413Z,10.10
2023-03-31T18:34:09.681Z,10.10
2023-03-31T18:39:34.914Z,10.00
2023-03-31T18:44:56.854Z,10.00
2023-03-31T18:50:18.290Z,10.00
2023-03-31T18:55:39.931Z,9.90
2023-03-31T19:01:01.696Z,9.70
2023-03-31T19:06:49.418Z,9.60
2023-03-31T19:12:12.613Z,9.60
2023-03-31T19:17:55.814Z,9.60
2023-03-31T19:23:25.250Z,9.40
2023-03-31T19:29:01.576Z,9.20
2023-03-31T19:34:25.680Z,9.20
2023-03-31T19:39:47.275Z,9.20
2023-03-31T19:45:09.562Z,9.00
2023-03-31T19:50:33.677Z,9.10
2023-03-31T19:56:30.993Z,8.90
2023-03-31T20:02:15.913Z,9.00
2023-03-31T20:07:46.756Z,8.90
2023-03-31T20:13:21.278Z,8.90
2023-03-31T20:19:05.627Z,9.00
2023-03-31T20:24:28.084Z,9.00
2023-03-31T20:29:49.497Z,9.00
2023-03-31T20:35:10.916Z,9.00
2023-03-31T20:40:32.453Z,8.90
2023-03-31T20:46:21.606Z,8.70
2023-03-31T20:52:13.554Z,8.70
2023-03-31T20:58:02.082Z,8.60
2023-03-31T21:03:53.383Z,8.50
2023-03-31T21:09:28.717Z,8.60
2023-03-31T21:14:50.150Z,8.60
2023-03-31T21:20:11.851Z,8.60
2023-03-31T21:25:33.628Z,8.60
2023-03-31T21:31:32.002Z,8.60
2023-03-31T21:37:12.107Z,8.50
2023-03-31T21:43:05.274Z,8.40
2023-03-31T21:48:29.769Z,8.40
2023-03-31T21:53:55.454Z,8.40
2023-03-31T21:59:17.199Z,8.30
2023-03-31T22:04:38.629Z,8.30
2023-03-31T22:10:00.137Z,8.20
2023-03-31T22:15:21.673Z,8.30
2023-03-31T22:20:43.459Z,8.10
2023-03-31T22:26:05.005Z,8.10
2023-03-31T22:31:27.153Z,8.00
2023-03-31T22:36:48.811Z,8.10
2023-03-31T22:42:11.110Z,8.10
2023-03-31T22:47:32.652Z,8.10
2023-03-31T22:52:54.087Z,8.10
2023-03-31T22:58:15.541Z,8.00
2023-03-31T23:03:37.525Z,8.00
2023-03-31T23:09:02.805Z,8.10
2023-03-31T23:14:24.234Z,8.00
2023-03-31T23:19:47.817Z,8.10
2023-03-31T23:25:09.369Z,8.00
2023-03-31T23:30:31.002Z,8.00
2023-03-31T23:35:58.209Z,8.20
2023-03-31T23:41:20.833Z,8.20
2023-03-31T23:46:44.363Z,8.10
2023-03-31T23:52:06.156Z,8.00
2023-03-31T23:57:27.852Z,8.00
